createdAt,value
2019-05-14T00:00:32.176Z,94304.65
2019-05-14T00:03:02.366Z,94297.30
2019-05-14T00:05:32.169Z,94292.83
2019-05-14T00:08:02.329Z,94299.28
2019-05-14T00:10:32.207Z,94301.34
2019-05-14T00:13:01.643Z,94296.14
2019-05-14T00:15:32.229Z,94297.34
2019-05-14T00:18:01.285Z,94297.03
2019-05-14T00:20:31.459Z,94296.18
2019-05-14T00:23:01.402Z,94290.28
2019-05-14T00:25:31.305Z,94279.97
2019-05-14T00:28:01.332Z,94277.22
2019-05-14T00:30:31.742Z,94278.06
2019-05-14T00:33:01.261Z,94280.84
2019-05-14T00:35:32.508Z,94274.31
2019-05-14T00:38:01.324Z,94270.70
2019-05-14T00:40:31.415Z,94269.28
2019-05-14T00:43:02.647Z,94270.98
2019-05-14T00:45:31.380Z,94271.16
2019-05-14T00:48:01.475Z,94273.43
2019-05-14T00:50:31.732Z,94278.38
2019-05-14T00:53:01.933Z,94274.67
2019-05-14T00:55:31.645Z,94283.78
2019-05-14T00:58:02.314Z,94271.43
2019-05-14T01:00:31.392Z,94275.48
2019-05-14T01:03:02.102Z,94274.04
2019-05-14T01:05:32.225Z,94279.75
2019-05-14T01:08:01.867Z,94281.62
2019-05-14T01:10:31.323Z,94282.48
2019-05-14T01:13:01.140Z,94275.06
2019-05-14T01:15:32.083Z,94280.02
2019-05-14T01:18:02.196Z,94271.58
2019-05-14T01:20:31.953Z,94264.02
2019-05-14T01:23:02.265Z,94261.80
2019-05-14T01:25:31.771Z,94270.70
2019-05-14T01:28:02.182Z,94281.45
2019-05-14T01:30:31.959Z,94248.86
2019-05-14T01:33:01.787Z,94269.34
2019-05-14T01:35:31.603Z,94262.52
2019-05-14T01:38:02.710Z,94266.98
2019-05-14T01:40:31.734Z,94274.81
2019-05-14T01:43:02.660Z,94275.91
2019-05-14T01:45:31.619Z,94246.69
2019-05-14T01:48:01.362Z,94263.15
2019-05-14T01:50:32.236Z,94251.91
2019-05-14T01:53:01.269Z,94268.38
2019-05-14T01:55:32.318Z,94265.03
2019-05-14T01:58:02.301Z,94272.84
2019-05-14T02:00:31.457Z,94275.72
2019-05-14T02:03:01.767Z,94282.98
2019-05-14T02:05:31.044Z,94263.94
2019-05-14T02:08:01.816Z,94258.67
2019-05-14T02:10:31.494Z,94251.72
2019-05-14T02:13:02.011Z,94245.23
2019-05-14T02:15:39.107Z,94256.99
2019-05-14T02:18:02.304Z,94258.67
2019-05-14T02:20:32.188Z,94254.16
2019-05-14T02:23:01.657Z,94244.75
2019-05-14T02:25:32.034Z,94242.99
2019-05-14T02:28:01.470Z,94237.28
2019-05-14T02:30:45.907Z,94247.94
2019-05-14T02:33:00.746Z,94248.70
2019-05-14T02:35:29.928Z,94243.50
2019-05-14T02:37:59.575Z,94246.03
2019-05-14T02:40:29.438Z,94246.98
2019-05-14T02:43:01.645Z,94249.01
2019-05-14T02:45:30.612Z,94265.19
2019-05-14T02:48:00.405Z,94270.27
2019-05-14T02:50:29.827Z,94263.39
2019-05-14T02:52:59.821Z,94258.97
2019-05-14T02:55:29.940Z,94249.33
2019-05-14T02:57:59.734Z,94246.86
2019-05-14T03:00:30.093Z,94259.58
2019-05-14T03:02:59.987Z,94273.99
2019-05-14T03:05:29.688Z,94269.30
2019-05-14T03:07:59.907Z,94283.24
2019-05-14T03:10:30.188Z,94285.11
2019-05-14T03:12:59.502Z,94286.77
2019-05-14T03:15:29.151Z,94291.84
2019-05-14T03:17:59.966Z,94294.56
2019-05-14T03:20:29.027Z,94297.55
2019-05-14T03:23:05.280Z,94295.96
2019-05-14T03:25:30.075Z,94298.31
2019-05-14T03:27:59.821Z,94299.16
2019-05-14T03:30:32.362Z,94310.42
2019-05-14T03:33:02.883Z,94306.47
2019-05-14T03:35:41.151Z,94308.52
2019-05-14T03:38:00.526Z,94317.23
2019-05-14T03:40:29.679Z,94323.05
2019-05-14T03:42:59.912Z,94325.94
2019-05-14T03:45:29.950Z,94314.80
2019-05-14T03:48:00.089Z,94311.56
2019-05-14T03:50:29.720Z,94311.23
2019-05-14T03:52:59.670Z,94311.60
2019-05-14T03:55:29.360Z,94297.78
2019-05-14T03:57:59.420Z,94282.52
2019-05-14T04:00:50.756Z,94290.27
2019-05-14T04:03:20.478Z,94283.53
2019-05-14T04:05:49.995Z,94288.31
2019-05-14T04:08:21.274Z,94282.64
2019-05-14T04:10:54.290Z,94280.13
2019-05-14T04:13:23.913Z,94287.93
2019-05-14T04:15:59.985Z,94289.42
2019-05-14T04:18:28.964Z,94286.44
2019-05-14T04:20:59.611Z,94284.34
2019-05-14T04:23:30.138Z,94291.55
2019-05-14T04:26:00.924Z,94281.47
2019-05-14T04:28:32.757Z,94273.28
2019-05-14T04:31:02.753Z,94281.08
2019-05-14T04:33:34.361Z,94275.47
2019-05-14T04:36:04.252Z,94273.85
2019-05-14T04:38:32.942Z,94268.99
2019-05-14T04:41:01.624Z,94264.36
2019-05-14T04:43:30.310Z,94263.37
2019-05-14T04:45:59.434Z,94257.66
2019-05-14T04:48:36.529Z,94252.88
2019-05-14T04:51:00.337Z,94260.84
2019-05-14T04:53:30.766Z,94269.44
2019-05-14T04:56:00.242Z,94270.58
2019-05-14T04:58:29.987Z,94270.03
2019-05-14T05:01:00.534Z,94273.94
2019-05-14T05:03:31.351Z,94262.86
2019-05-14T05:05:59.651Z,94256.14
2019-05-14T05:08:30.681Z,94256.53
2019-05-14T05:11:00.057Z,94260.50
2019-05-14T05:13:29.601Z,94261.05
2019-05-14T05:15:59.551Z,94265.27
2019-05-14T05:18:29.527Z,94261.58
2019-05-14T05:20:58.606Z,94261.25
2019-05-14T05:23:28.181Z,94259.09
2019-05-14T05:25:58.488Z,94266.72
2019-05-14T05:28:28.301Z,94268.98
2019-05-14T05:30:58.604Z,94265.52
2019-05-14T05:33:29.380Z,94269.50
2019-05-14T05:35:59.263Z,94273.98
2019-05-14T05:38:29.280Z,94282.03
2019-05-14T05:41:00.369Z,94278.13
2019-05-14T05:43:28.758Z,94274.11
2019-05-14T05:45:59.270Z,94271.45
2019-05-14T05:48:28.566Z,94277.13
2019-05-14T05:50:59.181Z,94285.05
2019-05-14T05:53:28.808Z,94277.11
2019-05-14T05:55:59.345Z,94280.73
2019-05-14T05:58:29.896Z,94278.30
2019-05-14T06:00:59.369Z,94278.63
2019-05-14T06:03:30.099Z,94274.19
2019-05-14T06:08:28.972Z,94251.14
2019-05-14T06:10:59.204Z,94248.14
2019-05-14T06:13:28.652Z,94242.36
2019-05-14T06:15:59.147Z,94243.89
2019-05-14T06:18:28.715Z,94250.38
2019-05-14T06:20:58.578Z,94254.18
2019-05-14T06:23:28.544Z,94248.16
2019-05-14T06:25:59.761Z,94252.38
2019-05-14T06:28:32.491Z,94256.86
2019-05-14T06:30:59.149Z,94249.97
2019-05-14T06:33:28.782Z,94246.36
2019-05-14T06:35:59.259Z,94253.55
2019-05-14T06:38:29.492Z,94248.76
2019-05-14T06:40:59.337Z,94244.20
2019-05-14T06:43:28.847Z,94237.70
2019-05-14T06:45:58.497Z,94223.24
2019-05-14T06:48:33.605Z,94207.75
2019-05-14T06:50:58.400Z,94205.26
2019-05-14T06:53:29.024Z,94195.74
2019-05-14T06:55:58.748Z,94206.23
2019-05-14T06:58:29.733Z,94214.70
2019-05-14T07:00:58.721Z,94209.02
2019-05-14T07:03:28.279Z,94208.09
2019-05-14T07:05:59.403Z,94212.36
2019-05-14T07:08:28.489Z,94200.30
2019-05-14T07:10:59.296Z,94203.84
2019-05-14T07:13:29.270Z,94196.31
2019-05-14T07:15:58.578Z,94177.53
2019-05-14T07:18:30.238Z,94202.16
2019-05-14T07:20:58.894Z,94194.98
2019-05-14T07:23:28.926Z,94191.39
2019-05-14T07:25:58.921Z,94190.02
2019-05-14T07:28:28.819Z,94187.91
2019-05-14T07:30:59.386Z,94181.98
2019-05-14T07:33:29.310Z,94179.53
2019-05-14T07:35:59.385Z,94182.50
2019-05-14T07:38:28.600Z,94192.22
2019-05-14T07:40:58.511Z,94199.92
2019-05-14T07:43:28.733Z,94198.44
2019-05-14T07:45:58.273Z,94204.95
2019-05-14T07:48:28.771Z,94205.86
2019-05-14T07:50:59.925Z,94195.49
2019-05-14T07:53:36.131Z,94185.06
2019-05-14T07:55:59.228Z,94190.63
2019-05-14T07:58:28.364Z,94190.49
2019-05-14T08:00:58.547Z,94189.45
2019-05-14T08:03:28.502Z,94193.39
2019-05-14T08:05:59.427Z,94189.70
2019-05-14T08:08:29.325Z,94189.70
2019-05-14T08:10:59.238Z,94196.99
2019-05-14T08:13:28.580Z,94203.84
2019-05-14T08:15:58.381Z,94201.75
2019-05-14T08:18:29.043Z,94202.34
2019-05-14T08:20:59.313Z,94196.59
2019-05-14T08:23:39.512Z,94172.23
2019-05-14T08:26:08.934Z,94195.73
2019-05-14T08:28:38.222Z,94183.55
2019-05-14T08:31:09.472Z,94189.23
2019-05-14T08:33:39.741Z,94183.78
2019-05-14T08:36:08.894Z,94193.92
2019-05-14T08:38:38.425Z,94192.31
2019-05-14T08:41:08.570Z,94183.97
2019-05-14T08:43:39.742Z,94187.63
2019-05-14T08:46:08.413Z,94183.89
2019-05-14T08:48:38.883Z,94182.69
2019-05-14T08:51:09.079Z,94180.88
2019-05-14T08:53:38.708Z,94175.97
2019-05-14T08:56:09.448Z,94173.70
2019-05-14T08:58:40.002Z,94165.65
2019-05-14T09:01:33.009Z,94164.25
2019-05-14T09:04:02.720Z,94172.77
2019-05-14T09:06:42.180Z,94164.66
2019-05-14T09:09:10.925Z,94162.11
2019-05-14T09:11:45.281Z,94165.63
2019-05-14T09:14:12.759Z,94159.39
2019-05-14T09:16:46.715Z,94160.69
2019-05-14T09:19:11.885Z,94151.58
2019-05-14T09:21:40.608Z,94149.84
2019-05-14T09:24:09.693Z,94144.45
2019-05-14T09:26:39.084Z,94117.14
2019-05-14T09:29:22.510Z,94135.39
2019-05-14T09:34:09.216Z,94127.43
2019-05-14T09:36:39.545Z,94105.69
2019-05-14T09:39:12.111Z,94123.51
2019-05-14T09:41:39.713Z,94124.02
2019-05-14T09:44:09.267Z,94114.24
2019-05-14T09:46:38.613Z,94126.16
2019-05-14T09:49:08.161Z,94120.12
2019-05-14T09:51:38.349Z,94114.13
2019-05-14T09:54:09.841Z,94123.42
2019-05-14T09:56:39.531Z,94118.31
2019-05-14T09:59:09.143Z,94121.27
2019-05-14T10:01:38.671Z,94119.80
2019-05-14T10:04:09.196Z,94091.23
2019-05-14T10:06:39.209Z,94115.72
2019-05-14T10:09:08.699Z,94109.11
2019-05-14T10:11:38.446Z,94115.34
2019-05-14T10:14:08.050Z,94112.19
2019-05-14T10:16:38.464Z,94111.00
2019-05-14T10:19:07.582Z,94115.34
2019-05-14T10:21:38.870Z,94110.06
2019-05-14T10:24:09.266Z,94118.55
2019-05-14T10:26:39.446Z,94113.17
2019-05-14T10:29:08.720Z,94114.44
2019-05-14T10:31:39.795Z,94112.23
2019-05-14T10:34:08.426Z,94094.07
2019-05-14T10:36:37.480Z,94108.57
2019-05-14T10:39:09.345Z,94099.24
2019-05-14T10:41:38.610Z,94111.91
2019-05-14T10:44:09.242Z,94113.64
2019-05-14T10:46:38.409Z,94113.36
2019-05-14T10:49:19.395Z,94117.47
2019-05-14T10:51:38.935Z,94108.60
2019-05-14T10:54:21.152Z,94096.92
2019-05-14T10:56:38.279Z,94096.92
2019-05-14T10:59:09.407Z,94095.98
2019-05-14T11:01:39.038Z,94100.78
2019-05-14T11:04:08.187Z,94100.28
2019-05-14T11:06:38.798Z,94106.61
2019-05-14T11:09:09.035Z,94108.05
2019-05-14T11:11:40.242Z,94111.54
2019-05-14T11:14:09.031Z,94099.31
2019-05-14T11:16:41.593Z,94101.36
2019-05-14T11:19:09.288Z,94102.91
2019-05-14T11:21:39.221Z,94096.97
2019-05-14T11:24:09.500Z,94099.76
2019-05-14T11:26:39.148Z,94093.72
2019-05-14T11:29:08.418Z,94091.30
2019-05-14T11:31:39.173Z,94090.62
2019-05-14T11:34:08.363Z,94092.55
2019-05-14T11:36:38.928Z,94095.87
2019-05-14T11:39:09.333Z,94095.28
2019-05-14T11:41:38.972Z,94099.33
2019-05-14T11:44:09.177Z,94078.06
2019-05-14T11:46:47.594Z,94076.98
2019-05-14T11:49:08.947Z,94076.96
2019-05-14T11:51:59.455Z,94071.13
2019-05-14T11:54:09.547Z,94064.77
2019-05-14T11:56:41.809Z,94071.61
2019-05-14T11:59:09.124Z,94066.30
2019-05-14T12:01:39.223Z,94068.98
2019-05-14T12:04:08.910Z,94053.09
2019-05-14T12:06:49.890Z,94189.59
2019-05-14T12:09:18.958Z,94064.37
2019-05-14T12:11:48.030Z,94072.22
2019-05-14T12:14:18.981Z,94063.00
2019-05-14T12:16:49.392Z,94060.84
2019-05-14T12:19:18.841Z,94054.33
2019-05-14T12:22:02.176Z,94044.27
2019-05-14T12:24:18.576Z,94037.19
2019-05-14T12:26:49.038Z,94036.23
2019-05-14T12:29:17.926Z,94026.20
2019-05-14T12:31:50.351Z,94024.13
2019-05-14T12:34:18.658Z,94018.86
2019-05-14T12:36:49.330Z,94022.78
2019-05-14T12:39:18.794Z,94033.59
2019-05-14T12:41:49.023Z,94023.83
2019-05-14T12:44:19.590Z,94029.22
2019-05-14T12:46:49.044Z,94015.62
2019-05-14T12:49:18.607Z,94009.41
2019-05-14T12:51:49.401Z,93998.76
2019-05-14T12:54:19.949Z,93998.15
2019-05-14T12:56:49.389Z,93989.50
2019-05-14T12:59:18.218Z,93988.59
2019-05-14T13:01:49.217Z,93982.05
2019-05-14T13:04:20.044Z,93984.19
2019-05-14T13:09:21.017Z,93991.81
2019-05-14T13:11:48.044Z,93995.55
2019-05-14T13:14:16.990Z,93979.53
2019-05-14T13:16:45.664Z,93982.09
2019-05-14T13:19:14.342Z,93986.36
2019-05-14T13:21:43.032Z,93988.06
2019-05-14T13:24:11.913Z,93990.34
2019-05-14T13:26:40.579Z,93993.16
2019-05-14T13:29:10.855Z,93999.31
2019-05-14T13:31:39.847Z,93999.22
2019-05-14T13:34:09.030Z,93991.33
2019-05-14T13:36:40.061Z,93987.48
2019-05-14T13:39:09.503Z,93976.16
2019-05-14T13:41:41.499Z,93986.90
2019-05-14T13:44:18.486Z,93986.55
2019-05-14T13:46:39.005Z,93985.64
2019-05-14T13:49:07.693Z,93980.98
2019-05-14T13:51:38.824Z,93972.08
2019-05-14T13:54:08.496Z,93979.33
2019-05-14T13:56:39.064Z,93970.78
2019-05-14T13:59:09.538Z,93959.27
2019-05-14T14:01:38.307Z,93952.68
2019-05-14T14:04:14.143Z,93967.39
2019-05-14T14:06:39.404Z,93965.55
2019-05-14T14:09:12.370Z,93957.16
2019-05-14T14:11:38.456Z,93945.78
2019-05-14T14:14:08.916Z,93953.81
2019-05-14T14:16:39.559Z,93947.95
2019-05-14T14:19:08.787Z,93937.72
2019-05-14T14:21:39.745Z,93941.23
2019-05-14T14:24:09.524Z,93928.75
2019-05-14T14:26:39.382Z,93935.82
2019-05-14T14:29:09.262Z,93944.63
2019-05-14T14:31:41.426Z,93942.86
2019-05-14T14:34:09.279Z,93944.08
2019-05-14T14:36:38.774Z,93950.27
2019-05-14T14:39:09.816Z,93940.05
2019-05-14T14:41:38.701Z,93935.89
2019-05-14T14:44:08.854Z,93932.64
2019-05-14T14:46:39.195Z,93909.63
2019-05-14T14:49:10.792Z,93928.30
2019-05-14T14:51:43.889Z,93922.79
2019-05-14T14:54:15.285Z,93933.31
2019-05-14T14:56:39.235Z,93935.98
2019-05-14T14:59:09.517Z,93936.73
2019-05-14T15:01:40.311Z,93930.27
2019-05-14T15:04:13.487Z,93931.00
2019-05-14T15:06:39.966Z,93933.05
2019-05-14T15:09:09.709Z,93922.98
2019-05-14T15:11:39.712Z,93916.57
2019-05-14T15:14:08.628Z,93919.86
2019-05-14T15:16:39.093Z,93921.56
2019-05-14T15:19:09.415Z,93916.49
2019-05-14T15:21:38.276Z,93910.03
2019-05-14T15:24:14.585Z,93905.29
2019-05-14T15:26:37.442Z,93906.91
2019-05-14T15:29:06.083Z,93910.94
2019-05-14T15:31:34.792Z,93909.89
2019-05-14T15:34:03.470Z,93894.91
2019-05-14T15:36:32.265Z,93893.02
2019-05-14T15:39:00.959Z,93895.77
2019-05-14T15:41:29.942Z,93899.14
2019-05-14T15:43:58.939Z,93890.70
2019-05-14T15:46:27.745Z,93887.77
2019-05-14T15:48:59.321Z,93895.45
2019-05-14T15:51:28.634Z,93891.84
2019-05-14T15:54:16.016Z,93892.28
2019-05-14T15:56:29.824Z,93883.09
2019-05-14T15:59:01.047Z,93885.01
2019-05-14T16:01:28.984Z,93879.75
2019-05-14T16:03:58.797Z,93889.13
2019-05-14T16:06:27.516Z,93889.34
2019-05-14T16:08:58.861Z,93886.88
2019-05-14T16:11:28.591Z,93882.01
2019-05-14T16:13:57.067Z,93872.39
2019-05-14T16:16:28.699Z,93876.34
2019-05-14T16:18:56.182Z,93882.34
2019-05-14T16:21:24.904Z,93870.95
2019-05-14T16:23:53.591Z,93874.44
2019-05-14T16:26:22.319Z,93873.83
2019-05-14T16:28:50.987Z,93877.31
2019-05-14T16:31:19.691Z,93878.68
2019-05-14T16:33:49.698Z,93884.59
2019-05-14T16:36:18.601Z,93899.45
2019-05-14T16:38:48.287Z,93889.95
2019-05-14T16:41:18.464Z,93888.87
2019-05-14T16:43:49.360Z,93891.11
2019-05-14T16:46:18.261Z,93891.45
2019-05-14T16:48:48.853Z,93877.67
2019-05-14T16:51:19.247Z,93871.77
2019-05-14T16:53:48.773Z,93879.14
2019-05-14T16:56:19.126Z,93881.66
2019-05-14T16:58:48.394Z,93893.25
2019-05-14T17:01:19.238Z,93896.17
2019-05-14T17:03:49.264Z,93904.93
2019-05-14T17:06:18.802Z,93892.91
2019-05-14T17:08:48.869Z,93874.47
2019-05-14T17:11:18.305Z,93881.64
2019-05-14T17:13:48.871Z,93883.64
2019-05-14T17:16:19.642Z,93883.94
2019-05-14T17:18:48.628Z,93890.06
2019-05-14T17:21:18.203Z,93893.67
2019-05-14T17:23:48.923Z,93897.88
2019-05-14T17:26:18.496Z,93900.39
2019-05-14T17:28:48.931Z,93899.03
2019-05-14T17:31:19.086Z,93901.89
2019-05-14T17:33:49.222Z,93897.64
2019-05-14T17:36:18.864Z,93900.92
2019-05-14T17:38:49.128Z,93891.33
2019-05-14T17:41:19.434Z,93898.39
2019-05-14T17:43:49.508Z,93902.08
2019-05-14T17:46:18.686Z,93896.60
2019-05-14T17:48:48.715Z,93891.86
2019-05-14T17:51:18.228Z,93901.23
2019-05-14T17:53:48.056Z,93899.86
2019-05-14T17:56:19.166Z,93895.75
2019-05-14T17:58:48.958Z,93892.99
2019-05-14T18:01:18.495Z,93883.48
2019-05-14T18:03:49.068Z,93893.91
2019-05-14T18:06:18.888Z,93888.09
2019-05-14T18:08:47.914Z,93904.27
2019-05-14T18:11:18.974Z,93898.69
2019-05-14T18:13:48.415Z,93898.14
2019-05-14T18:16:19.147Z,93896.75
2019-05-14T18:18:49.415Z,93905.13
2019-05-14T18:21:18.838Z,93898.58
2019-05-14T18:23:49.155Z,93894.98
2019-05-14T18:26:18.870Z,93892.99
2019-05-14T18:28:47.835Z,93889.95
2019-05-14T18:31:19.583Z,93892.99
2019-05-14T18:33:49.106Z,93887.90
2019-05-14T18:36:19.072Z,93891.49
2019-05-14T18:38:49.375Z,93893.73
2019-05-14T18:41:19.043Z,93902.82
2019-05-14T18:43:47.960Z,93899.97
2019-05-14T18:46:18.997Z,93904.70
2019-05-14T18:48:48.672Z,93900.08
2019-05-14T18:51:19.647Z,93899.77
2019-05-14T18:53:49.053Z,93904.08
2019-05-14T18:56:24.016Z,93902.93
2019-05-14T18:58:48.967Z,93905.36
2019-05-14T19:01:19.624Z,93903.36
2019-05-14T19:03:49.358Z,93914.20
2019-05-14T19:06:19.005Z,93914.22
2019-05-14T19:08:48.410Z,93913.80
2019-05-14T19:11:17.443Z,93895.57
2019-05-14T19:13:48.278Z,93893.14
2019-05-14T19:16:16.623Z,93896.20
2019-05-14T19:18:45.364Z,93893.47
2019-05-14T19:21:14.093Z,93893.27
2019-05-14T19:23:45.263Z,93892.32
2019-05-14T19:26:13.247Z,93885.25
2019-05-14T19:28:41.965Z,93880.61
2019-05-14T19:31:10.682Z,93879.14
2019-05-14T19:33:39.444Z,93875.03
2019-05-14T19:36:08.970Z,93875.56
2019-05-14T19:38:38.872Z,93882.61
2019-05-14T19:41:08.727Z,93889.34
2019-05-14T19:43:37.776Z,93885.24
2019-05-14T19:46:08.598Z,93886.81
2019-05-14T19:48:36.953Z,93876.19
2019-05-14T19:51:08.196Z,93866.70
2019-05-14T19:53:39.002Z,93865.55
2019-05-14T19:56:07.079Z,93870.91
2019-05-14T19:58:38.147Z,93856.50
2019-05-14T20:01:09.107Z,93852.98
2019-05-14T20:03:38.221Z,93867.31
2019-05-14T20:06:09.063Z,93868.67
2019-05-14T20:08:38.440Z,93865.71
2019-05-14T20:11:07.656Z,93877.14
2019-05-14T20:13:38.925Z,93879.69
2019-05-14T20:16:08.728Z,93873.57
2019-05-14T20:18:38.252Z,93863.88
2019-05-14T20:21:08.701Z,93863.86
2019-05-14T20:23:38.670Z,93871.83
2019-05-14T20:26:08.310Z,93885.09
2019-05-14T20:28:38.976Z,93888.42
2019-05-14T20:31:09.985Z,93897.90
2019-05-14T20:33:38.075Z,93907.83
2019-05-14T20:36:08.267Z,93918.94
2019-05-14T20:38:38.790Z,93924.83
2019-05-14T20:41:08.737Z,93922.20
2019-05-14T20:43:38.495Z,93922.31
2019-05-14T20:46:07.413Z,93926.76
2019-05-14T20:48:38.870Z,93916.95
2019-05-14T20:51:08.844Z,93919.06
2019-05-14T20:53:39.414Z,93921.28
2019-05-14T20:56:08.310Z,93934.64
2019-05-14T20:58:38.789Z,93943.38
2019-05-14T21:01:11.159Z,93952.96
2019-05-14T21:03:38.364Z,93956.05
2019-05-14T21:06:09.037Z,93962.63
2019-05-14T21:08:38.065Z,93969.73
2019-05-14T21:11:08.253Z,93978.63
2019-05-14T21:13:37.194Z,93976.08
2019-05-14T21:16:05.880Z,93973.91
2019-05-14T21:18:35.502Z,93972.20
2019-05-14T21:21:04.391Z,93979.08
2019-05-14T21:23:33.092Z,93989.37
2019-05-14T21:26:01.827Z,93988.98
2019-05-14T21:28:30.534Z,93991.86
2019-05-14T21:30:59.288Z,93991.10
2019-05-14T21:33:28.396Z,93997.73
2019-05-14T21:35:59.282Z,93988.47
2019-05-14T21:38:28.689Z,93976.47
2019-05-14T21:40:58.291Z,93965.91
2019-05-14T21:43:28.973Z,93954.08
2019-05-14T21:45:58.633Z,93961.98
2019-05-14T21:48:28.879Z,93972.01
2019-05-14T21:51:00.616Z,93969.28
2019-05-14T21:53:28.199Z,93967.10
2019-05-14T21:55:58.678Z,93976.45
2019-05-14T21:58:29.232Z,93973.70
2019-05-14T22:00:59.251Z,93992.02
2019-05-14T22:03:28.508Z,94004.49
2019-05-14T22:05:59.351Z,94006.73
2019-05-14T22:08:30.142Z,94010.34
2019-05-14T22:10:58.612Z,94026.34
2019-05-14T22:13:28.417Z,94012.15
2019-05-14T22:15:58.954Z,94001.25
2019-05-14T22:18:27.950Z,94004.68
2019-05-14T22:20:57.980Z,94002.08
2019-05-14T22:23:29.059Z,94009.49
2019-05-14T22:25:58.199Z,94000.19
2019-05-14T22:28:28.806Z,94000.98
2019-05-14T22:30:58.718Z,93999.27
2019-05-14T22:33:28.417Z,93991.98
2019-05-14T22:35:58.056Z,93994.23
2019-05-14T22:38:29.142Z,93991.14
2019-05-14T22:40:59.259Z,93999.36
2019-05-14T22:43:28.800Z,94003.83
2019-05-14T22:45:59.094Z,94022.02
2019-05-14T22:48:28.194Z,94029.17
2019-05-14T22:50:59.145Z,94026.33
2019-05-14T22:53:27.861Z,94023.33
2019-05-14T22:55:58.614Z,94025.95
2019-05-14T22:58:28.805Z,94025.95
2019-05-14T23:01:13.559Z,94015.34
2019-05-14T23:03:29.060Z,94019.77
2019-05-14T23:05:58.253Z,94025.70
2019-05-14T23:08:26.994Z,94033.10
2019-05-14T23:10:55.686Z,94029.66
2019-05-14T23:13:24.409Z,94023.70
2019-05-14T23:15:53.101Z,94026.09
2019-05-14T23:18:21.809Z,94026.76
2019-05-14T23:20:50.523Z,94024.89
2019-05-14T23:23:19.243Z,94013.02
2019-05-14T23:25:47.948Z,94012.98
2019-05-14T23:28:19.052Z,94019.06
2019-05-14T23:30:48.112Z,94024.16
2019-05-14T23:33:19.109Z,94029.83
2019-05-14T23:35:48.243Z,94032.17
2019-05-14T23:38:19.000Z,94036.75
2019-05-14T23:40:49.387Z,94037.10
2019-05-14T23:43:18.619Z,94032.44
2019-05-14T23:45:47.618Z,94031.47
2019-05-14T23:48:18.713Z,94034.42
2019-05-14T23:50:48.769Z,94030.58
2019-05-14T23:53:18.439Z,94031.48
2019-05-14T23:55:48.099Z,94029.23
2019-05-14T23:58:20.243Z,94028.00
